sensor_id;sensor_type;location;lat;lon;timestamp;P1;durP1;ratioP1;P2;durP2;ratioP2
34302;SDS011;20785;50.020;19.916;2022-12-07T00:05:57;10.25;;;5.58;;
34302;SDS011;20785;50.020;19.916;2022-12-07T00:11:59;10.48;;;5.10;;
34302;SDS011;20785;50.020;19.916;2022-12-07T00:18:00;8.58;;;4.83;;
34302;SDS011;20785;50.020;19.916;2022-12-07T00:24:02;8.43;;;4.83;;
34302;SDS011;20785;50.020;19.916;2022-12-07T00:30:06;7.55;;;4.80;;
34302;SDS011;20785;50.020;19.916;2022-12-07T00:36:09;7.47;;;4.65;;
34302;SDS011;20785;50.020;19.916;2022-12-07T00:42:13;7.60;;;4.47;;
34302;SDS011;20785;50.020;19.916;2022-12-07T00:48:14;7.22;;;4.15;;
34302;SDS011;20785;50.020;19.916;2022-12-07T00:54:16;7.95;;;4.92;;
34302;SDS011;20785;50.020;19.916;2022-12-07T01:00:17;8.65;;;4.80;;
34302;SDS011;20785;50.020;19.916;2022-12-07T01:06:19;8.95;;;4.58;;
34302;SDS011;20785;50.020;19.916;2022-12-07T01:12:23;8.00;;;4.28;;
34302;SDS011;20785;50.020;19.916;2022-12-07T01:18:24;7.47;;;4.17;;
34302;SDS011;20785;50.020;19.916;2022-12-07T01:24:26;8.30;;;4.55;;
34302;SDS011;20785;50.020;19.916;2022-12-07T01:30:27;8.53;;;4.33;;
34302;SDS011;20785;50.020;19.916;2022-12-07T01:36:29;8.13;;;4.65;;
34302;SDS011;20785;50.020;19.916;2022-12-07T01:42:33;7.92;;;4.45;;
34302;SDS011;20785;50.020;19.916;2022-12-07T01:48:40;9.55;;;5.28;;
34302;SDS011;20785;50.020;19.916;2022-12-07T01:54:43;9.90;;;4.95;;
34302;SDS011;20785;50.020;19.916;2022-12-07T02:00:46;9.53;;;4.75;;
34302;SDS011;20785;50.020;19.916;2022-12-07T02:06:48;9.05;;;5.00;;
34302;SDS011;20785;50.020;19.916;2022-12-07T02:12:52;8.93;;;5.17;;
34302;SDS011;20785;50.020;19.916;2022-12-07T02:32:25;8.70;;;4.67;;
34302;SDS011;20785;50.020;19.916;2022-12-07T02:44:50;7.70;;;5.15;;
34302;SDS011;20785;50.020;19.916;2022-12-07T02:50:53;9.20;;;5.45;;
34302;SDS011;20785;50.020;19.916;2022-12-07T02:57:05;7.62;;;4.85;;
34302;SDS011;20785;50.020;19.916;2022-12-07T03:03:12;10.70;;;5.53;;
34302;SDS011;20785;50.020;19.916;2022-12-07T03:09:20;9.25;;;5.30;;
34302;SDS011;20785;50.020;19.916;2022-12-07T03:15:27;8.70;;;4.95;;
34302;SDS011;20785;50.020;19.916;2022-12-07T03:21:53;8.45;;;4.97;;
34302;SDS011;20785;50.020;19.916;2022-12-07T03:27:58;9.40;;;5.78;;
34302;SDS011;20785;50.020;19.916;2022-12-07T03:41:18;11.63;;;6.25;;
34302;SDS011;20785;50.020;19.916;2022-12-07T03:53:32;9.55;;;5.87;;
34302;SDS011;20785;50.020;19.916;2022-12-07T03:59:37;9.63;;;5.62;;
34302;SDS011;20785;50.020;19.916;2022-12-07T04:05:40;11.22;;;7.08;;
34302;SDS011;20785;50.020;19.916;2022-12-07T04:11:42;11.30;;;6.33;;
34302;SDS011;20785;50.020;19.916;2022-12-07T04:17:44;14.00;;;6.70;;
34302;SDS011;20785;50.020;19.916;2022-12-07T04:23:45;13.53;;;7.65;;
34302;SDS011;20785;50.020;19.916;2022-12-07T04:29:46;14.10;;;8.15;;
34302;SDS011;20785;50.020;19.916;2022-12-07T04:35:48;12.50;;;7.70;;
34302;SDS011;20785;50.020;19.916;2022-12-07T04:41:49;15.28;;;8.08;;
34302;SDS011;20785;50.020;19.916;2022-12-07T04:47:50;15.28;;;8.18;;
34302;SDS011;20785;50.020;19.916;2022-12-07T04:53:52;13.68;;;8.30;;
34302;SDS011;20785;50.020;19.916;2022-12-07T04:59:54;14.45;;;8.05;;
34302;SDS011;20785;50.020;19.916;2022-12-07T05:05:55;15.30;;;9.38;;
34302;SDS011;20785;50.020;19.916;2022-12-07T05:11:56;15.15;;;8.53;;
34302;SDS011;20785;50.020;19.916;2022-12-07T05:17:57;13.43;;;7.92;;
34302;SDS011;20785;50.020;19.916;2022-12-07T05:23:58;12.05;;;6.97;;
34302;SDS011;20785;50.020;19.916;2022-12-07T05:30:00;11.15;;;6.90;;
34302;SDS011;20785;50.020;19.916;2022-12-07T05:36:01;11.15;;;7.17;;
34302;SDS011;20785;50.020;19.916;2022-12-07T05:42:05;12.65;;;7.85;;
34302;SDS011;20785;50.020;19.916;2022-12-07T05:48:15;10.65;;;7.03;;
34302;SDS011;20785;50.020;19.916;2022-12-07T05:54:16;10.58;;;6.37;;
34302;SDS011;20785;50.020;19.916;2022-12-07T06:00:18;8.73;;;5.65;;
34302;SDS011;20785;50.020;19.916;2022-12-07T06:06:20;7.58;;;4.67;;
34302;SDS011;20785;50.020;19.916;2022-12-07T06:12:22;8.65;;;4.22;;
34302;SDS011;20785;50.020;19.916;2022-12-07T06:18:35;7.92;;;4.20;;
34302;SDS011;20785;50.020;19.916;2022-12-07T06:24:37;7.58;;;4.70;;
34302;SDS011;20785;50.020;19.916;2022-12-07T06:30:39;6.78;;;4.67;;
34302;SDS011;20785;50.020;19.916;2022-12-07T06:36:40;8.70;;;4.95;;
34302;SDS011;20785;50.020;19.916;2022-12-07T06:42:43;8.83;;;4.80;;
34302;SDS011;20785;50.020;19.916;2022-12-07T06:48:45;9.48;;;5.65;;
34302;SDS011;20785;50.020;19.916;2022-12-07T06:54:46;8.75;;;4.62;;
34302;SDS011;20785;50.020;19.916;2022-12-07T07:00:48;8.85;;;5.20;;
34302;SDS011;20785;50.020;19.916;2022-12-07T07:06:51;9.05;;;5.53;;
34302;SDS011;20785;50.020;19.916;2022-12-07T07:12:52;9.58;;;5.83;;
34302;SDS011;20785;50.020;19.916;2022-12-07T07:18:53;10.82;;;6.85;;
34302;SDS011;20785;50.020;19.916;2022-12-07T07:24:54;11.57;;;6.67;;
34302;SDS011;20785;50.020;19.916;2022-12-07T07:30:56;12.10;;;6.83;;
34302;SDS011;20785;50.020;19.916;2022-12-07T07:36:57;12.25;;;6.92;;
34302;SDS011;20785;50.020;19.916;2022-12-07T07:42:58;12.58;;;7.22;;
34302;SDS011;20785;50.020;19.916;2022-12-07T07:49:00;13.40;;;6.90;;
34302;SDS011;20785;50.020;19.916;2022-12-07T07:55:01;13.98;;;8.18;;
34302;SDS011;20785;50.020;19.916;2022-12-07T08:01:08;11.73;;;7.37;;
34302;SDS011;20785;50.020;19.916;2022-12-07T08:07:08;11.65;;;7.42;;
34302;SDS011;20785;50.020;19.916;2022-12-07T08:13:09;10.13;;;5.92;;
34302;SDS011;20785;50.020;19.916;2022-12-07T08:19:17;10.30;;;6.25;;
34302;SDS011;20785;50.020;19.916;2022-12-07T08:25:18;12.40;;;6.70;;
34302;SDS011;20785;50.020;19.916;2022-12-07T08:31:21;9.85;;;6.55;;
34302;SDS011;20785;50.020;19.916;2022-12-07T08:37:23;10.38;;;6.58;;
34302;SDS011;20785;50.020;19.916;2022-12-07T08:43:24;11.97;;;6.97;;
34302;SDS011;20785;50.020;19.916;2022-12-07T08:49:27;10.48;;;6.47;;
34302;SDS011;20785;50.020;19.916;2022-12-07T08:55:35;13.60;;;8.05;;
34302;SDS011;20785;50.020;19.916;2022-12-07T09:01:36;11.60;;;7.35;;
34302;SDS011;20785;50.020;19.916;2022-12-07T09:07:38;11.28;;;6.75;;
34302;SDS011;20785;50.020;19.916;2022-12-07T09:13:39;10.93;;;6.97;;
34302;SDS011;20785;50.020;19.916;2022-12-07T09:19:41;11.57;;;7.25;;
34302;SDS011;20785;50.020;19.916;2022-12-07T09:25:43;11.78;;;7.00;;
34302;SDS011;20785;50.020;19.916;2022-12-07T09:31:44;9.00;;;5.83;;
34302;SDS011;20785;50.020;19.916;2022-12-07T09:37:46;8.93;;;5.97;;
34302;SDS011;20785;50.020;19.916;2022-12-07T09:43:47;8.00;;;5.42;;
34302;SDS011;20785;50.020;19.916;2022-12-07T09:49:49;8.68;;;5.22;;
34302;SDS011;20785;50.020;19.916;2022-12-07T09:55:50;8.40;;;5.05;;
34302;SDS011;20785;50.020;19.916;2022-12-07T10:01:52;9.20;;;5.35;;
34302;SDS011;20785;50.020;19.916;2022-12-07T10:07:54;9.68;;;5.65;;
34302;SDS011;20785;50.020;19.916;2022-12-07T10:13:56;8.88;;;5.78;;
34302;SDS011;20785;50.020;19.916;2022-12-07T10:26:30;11.15;;;5.95;;
34302;SDS011;20785;50.020;19.916;2022-12-07T10:32:48;7.12;;;4.78;;
34302;SDS011;20785;50.020;19.916;2022-12-07T10:38:53;8.83;;;5.25;;
34302;SDS011;20785;50.020;19.916;2022-12-07T10:45:17;8.80;;;5.00;;
34302;SDS011;20785;50.020;19.916;2022-12-07T11:10:44;6.25;;;3.85;;
34302;SDS011;20785;50.020;19.916;2022-12-07T11:23:19;6.53;;;4.12;;
34302;SDS011;20785;50.020;19.916;2022-12-07T11:36:13;5.80;;;4.10;;
34302;SDS011;20785;50.020;19.916;2022-12-07T11:42:33;6.03;;;4.40;;
34302;SDS011;20785;50.020;19.916;2022-12-07T11:48:40;7.60;;;5.05;;
34302;SDS011;20785;50.020;19.916;2022-12-07T11:55:02;6.12;;;4.50;;
34302;SDS011;20785;50.020;19.916;2022-12-07T12:07:40;6.22;;;4.15;;
34302;SDS011;20785;50.020;19.916;2022-12-07T12:13:52;6.05;;;3.77;;
34302;SDS011;20785;50.020;19.916;2022-12-07T12:26:33;4.45;;;2.98;;
34302;SDS011;20785;50.020;19.916;2022-12-07T12:32:41;4.15;;;2.60;;
34302;SDS011;20785;50.020;19.916;2022-12-07T12:45:18;3.77;;;2.27;;
34302;SDS011;20785;50.020;19.916;2022-12-07T12:51:36;4.72;;;2.90;;
34302;SDS011;20785;50.020;19.916;2022-12-07T12:57:40;5.85;;;3.00;;
34302;SDS011;20785;50.020;19.916;2022-12-07T13:03:50;5.15;;;2.92;;
34302;SDS011;20785;50.020;19.916;2022-12-07T13:09:57;4.97;;;2.85;;
34302;SDS011;20785;50.020;19.916;2022-12-07T13:28:37;4.95;;;2.50;;
34302;SDS011;20785;50.020;19.916;2022-12-07T13:34:42;5.47;;;2.87;;
34302;SDS011;20785;50.020;19.916;2022-12-07T13:40:59;5.50;;;3.50;;
34302;SDS011;20785;50.020;19.916;2022-12-07T13:47:09;5.80;;;3.60;;
34302;SDS011;20785;50.020;19.916;2022-12-07T13:53:19;5.28;;;3.20;;
34302;SDS011;20785;50.020;19.916;2022-12-07T13:59:21;5.00;;;3.05;;
34302;SDS011;20785;50.020;19.916;2022-12-07T14:05:25;5.42;;;3.10;;
34302;SDS011;20785;50.020;19.916;2022-12-07T14:11:31;6.90;;;3.62;;
34302;SDS011;20785;50.020;19.916;2022-12-07T14:17:33;5.90;;;3.47;;
34302;SDS011;20785;50.020;19.916;2022-12-07T14:23:37;6.15;;;3.87;;
34302;SDS011;20785;50.020;19.916;2022-12-07T14:29:39;6.78;;;4.10;;
34302;SDS011;20785;50.020;19.916;2022-12-07T14:35:41;7.58;;;3.75;;
34302;SDS011;20785;50.020;19.916;2022-12-07T14:41:42;6.20;;;3.83;;
34302;SDS011;20785;50.020;19.916;2022-12-07T14:47:55;7.05;;;3.90;;
34302;SDS011;20785;50.020;19.916;2022-12-07T14:53:56;6.25;;;3.98;;
34302;SDS011;20785;50.020;19.916;2022-12-07T15:00:01;8.35;;;4.42;;
34302;SDS011;20785;50.020;19.916;2022-12-07T15:06:04;6.85;;;4.53;;
34302;SDS011;20785;50.020;19.916;2022-12-07T15:12:06;8.30;;;5.15;;
34302;SDS011;20785;50.020;19.916;2022-12-07T15:18:09;9.58;;;4.87;;
34302;SDS011;20785;50.020;19.916;2022-12-07T15:24:11;7.40;;;4.28;;
34302;SDS011;20785;50.020;19.916;2022-12-07T15:30:13;9.03;;;4.87;;
34302;SDS011;20785;50.020;19.916;2022-12-07T15:36:18;8.23;;;4.60;;
34302;SDS011;20785;50.020;19.916;2022-12-07T15:42:23;9.65;;;4.95;;
34302;SDS011;20785;50.020;19.916;2022-12-07T15:48:25;11.18;;;5.20;;
34302;SDS011;20785;50.020;19.916;2022-12-07T15:54:27;12.93;;;5.85;;
34302;SDS011;20785;50.020;19.916;2022-12-07T16:00:30;13.48;;;6.22;;
34302;SDS011;20785;50.020;19.916;2022-12-07T16:06:31;13.28;;;6.22;;
34302;SDS011;20785;50.020;19.916;2022-12-07T16:12:32;12.35;;;6.20;;
34302;SDS011;20785;50.020;19.916;2022-12-07T16:18:34;12.37;;;6.95;;
34302;SDS011;20785;50.020;19.916;2022-12-07T16:24:36;13.68;;;6.72;;
34302;SDS011;20785;50.020;19.916;2022-12-07T16:30:37;11.30;;;6.22;;
34302;SDS011;20785;50.020;19.916;2022-12-07T16:36:39;14.50;;;6.87;;
34302;SDS011;20785;50.020;19.916;2022-12-07T16:42:41;11.25;;;6.12;;
34302;SDS011;20785;50.020;19.916;2022-12-07T16:48:42;12.18;;;7.03;;
34302;SDS011;20785;50.020;19.916;2022-12-07T16:54:46;12.98;;;6.15;;
34302;SDS011;20785;50.020;19.916;2022-12-07T17:00:49;11.08;;;5.92;;
34302;SDS011;20785;50.020;19.916;2022-12-07T17:06:50;11.33;;;6.03;;
34302;SDS011;20785;50.020;19.916;2022-12-07T17:12:54;11.28;;;6.10;;
34302;SDS011;20785;50.020;19.916;2022-12-07T17:18:57;12.07;;;6.33;;
34302;SDS011;20785;50.020;19.916;2022-12-07T17:25:00;11.15;;;5.37;;
34302;SDS011;20785;50.020;19.916;2022-12-07T17:31:04;13.48;;;6.28;;
34302;SDS011;20785;50.020;19.916;2022-12-07T17:37:09;11.20;;;5.37;;
34302;SDS011;20785;50.020;19.916;2022-12-07T17:43:10;9.45;;;5.05;;
34302;SDS011;20785;50.020;19.916;2022-12-07T17:49:13;10.38;;;5.42;;
34302;SDS011;20785;50.020;19.916;2022-12-07T17:55:15;11.43;;;5.50;;
34302;SDS011;20785;50.020;19.916;2022-12-07T18:01:17;9.38;;;4.87;;
34302;SDS011;20785;50.020;19.916;2022-12-07T18:07:18;9.70;;;4.53;;
34302;SDS011;20785;50.020;19.916;2022-12-07T18:13:19;9.40;;;4.80;;
34302;SDS011;20785;50.020;19.916;2022-12-07T18:19:35;8.85;;;4.78;;
34302;SDS011;20785;50.020;19.916;2022-12-07T18:25:37;10.32;;;5.28;;
34302;SDS011;20785;50.020;19.916;2022-12-07T18:31:38;9.60;;;5.12;;
34302;SDS011;20785;50.020;19.916;2022-12-07T18:37:39;11.20;;;5.55;;
34302;SDS011;20785;50.020;19.916;2022-12-07T18:43:41;9.68;;;5.30;;
34302;SDS011;20785;50.020;19.916;2022-12-07T18:49:42;8.90;;;5.10;;
34302;SDS011;20785;50.020;19.916;2022-12-07T18:55:45;11.45;;;5.20;;
34302;SDS011;20785;50.020;19.916;2022-12-07T19:01:51;9.43;;;5.37;;
34302;SDS011;20785;50.020;19.916;2022-12-07T19:07:54;8.60;;;4.37;;
34302;SDS011;20785;50.020;19.916;2022-12-07T19:13:56;11.88;;;5.90;;
34302;SDS011;20785;50.020;19.916;2022-12-07T19:20:02;11.80;;;5.05;;
34302;SDS011;20785;50.020;19.916;2022-12-07T19:26:07;9.85;;;5.30;;
34302;SDS011;20785;50.020;19.916;2022-12-07T19:32:08;10.60;;;5.20;;
34302;SDS011;20785;50.020;19.916;2022-12-07T19:38:15;13.65;;;7.28;;
34302;SDS011;20785;50.020;19.916;2022-12-07T19:44:20;15.43;;;8.53;;
34302;SDS011;20785;50.020;19.916;2022-12-07T19:50:27;16.02;;;7.95;;
34302;SDS011;20785;50.020;19.916;2022-12-07T19:56:30;17.62;;;8.03;;
34302;SDS011;20785;50.020;19.916;2022-12-07T20:02:31;16.30;;;8.20;;
34302;SDS011;20785;50.020;19.916;2022-12-07T20:08:33;15.88;;;8.43;;
34302;SDS011;20785;50.020;19.916;2022-12-07T20:14:34;14.40;;;7.25;;
34302;SDS011;20785;50.020;19.916;2022-12-07T20:20:36;15.38;;;7.60;;
34302;SDS011;20785;50.020;19.916;2022-12-07T20:26:38;17.32;;;7.58;;
34302;SDS011;20785;50.020;19.916;2022-12-07T20:32:40;14.90;;;7.15;;
34302;SDS011;20785;50.020;19.916;2022-12-07T20:38:41;11.90;;;6.25;;
34302;SDS011;20785;50.020;19.916;2022-12-07T20:44:44;14.80;;;6.62;;
34302;SDS011;20785;50.020;19.916;2022-12-07T20:50:48;11.95;;;6.33;;
34302;SDS011;20785;50.020;19.916;2022-12-07T20:56:50;9.90;;;5.47;;
34302;SDS011;20785;50.020;19.916;2022-12-07T21:02:52;11.33;;;6.03;;
34302;SDS011;20785;50.020;19.916;2022-12-07T21:08:54;9.40;;;5.28;;
34302;SDS011;20785;50.020;19.916;2022-12-07T21:14:59;11.23;;;5.80;;
34302;SDS011;20785;50.020;19.916;2022-12-07T21:21:00;11.70;;;5.47;;
34302;SDS011;20785;50.020;19.916;2022-12-07T21:27:02;9.68;;;5.10;;
34302;SDS011;20785;50.020;19.916;2022-12-07T21:33:05;10.23;;;4.72;;
34302;SDS011;20785;50.020;19.916;2022-12-07T21:39:07;11.08;;;5.03;;
34302;SDS011;20785;50.020;19.916;2022-12-07T21:45:09;8.80;;;4.80;;
34302;SDS011;20785;50.020;19.916;2022-12-07T21:51:11;9.25;;;4.22;;
34302;SDS011;20785;50.020;19.916;2022-12-07T21:57:21;7.28;;;3.85;;
34302;SDS011;20785;50.020;19.916;2022-12-07T22:03:28;8.90;;;3.87;;
34302;SDS011;20785;50.020;19.916;2022-12-07T22:09:29;7.78;;;3.60;;
34302;SDS011;20785;50.020;19.916;2022-12-07T22:15:38;7.20;;;3.25;;
34302;SDS011;20785;50.020;19.916;2022-12-07T22:21:42;6.33;;;2.90;;
34302;SDS011;20785;50.020;19.916;2022-12-07T22:27:47;6.47;;;3.58;;
34302;SDS011;20785;50.020;19.916;2022-12-07T22:33:51;7.20;;;3.15;;
34302;SDS011;20785;50.020;19.916;2022-12-07T22:39:52;8.45;;;3.33;;
34302;SDS011;20785;50.020;19.916;2022-12-07T22:46:01;6.05;;;2.95;;
34302;SDS011;20785;50.020;19.916;2022-12-07T22:52:04;7.42;;;3.27;;
34302;SDS011;20785;50.020;19.916;2022-12-07T22:58:06;7.42;;;3.25;;
34302;SDS011;20785;50.020;19.916;2022-12-07T23:04:13;7.80;;;3.22;;
34302;SDS011;20785;50.020;19.916;2022-12-07T23:10:15;7.58;;;3.45;;
34302;SDS011;20785;50.020;19.916;2022-12-07T23:16:21;6.87;;;3.45;;
34302;SDS011;20785;50.020;19.916;2022-12-07T23:22:23;6.53;;;3.05;;
34302;SDS011;20785;50.020;19.916;2022-12-07T23:28:24;4.28;;;2.58;;
34302;SDS011;20785;50.020;19.916;2022-12-07T23:34:26;5.22;;;2.65;;
34302;SDS011;20785;50.020;19.916;2022-12-07T23:40:27;6.60;;;3.08;;
34302;SDS011;20785;50.020;19.916;2022-12-07T23:46:29;5.87;;;3.00;;
34302;SDS011;20785;50.020;19.916;2022-12-07T23:52:33;6.25;;;2.77;;
34302;SDS011;20785;50.020;19.916;2022-12-07T23:58:34;4.45;;;2.47;;
